createdAt,value
2019-03-27T00:01:49.596Z,37.97
2019-03-27T00:04:16.481Z,37.80
2019-03-27T00:06:43.388Z,37.64
2019-03-27T00:09:10.711Z,37.54
2019-03-27T00:11:37.936Z,37.45
2019-03-27T00:14:05.178Z,37.37
2019-03-27T00:16:32.435Z,37.27
2019-03-27T00:18:59.312Z,37.23
2019-03-27T00:21:26.637Z,37.12
2019-03-27T00:23:53.781Z,37.11
2019-03-27T00:26:21.029Z,37.01
2019-03-27T00:28:48.182Z,36.99
2019-03-27T00:31:16.097Z,36.96
2019-03-27T00:33:42.993Z,36.93
2019-03-27T00:36:09.964Z,36.90
2019-03-27T00:38:37.190Z,36.85
2019-03-27T00:41:04.106Z,36.80
2019-03-27T00:43:30.980Z,36.72
2019-03-27T00:45:57.888Z,36.56
2019-03-27T00:48:26.118Z,36.42
2019-03-27T00:50:53.360Z,36.42
2019-03-27T00:53:20.504Z,36.42
2019-03-27T00:55:47.654Z,36.49
2019-03-27T00:58:14.933Z,36.51
2019-03-27T01:00:41.884Z,36.59
2019-03-27T01:03:08.839Z,36.66
2019-03-27T01:05:35.708Z,36.71
2019-03-27T01:08:02.594Z,36.84
2019-03-27T01:10:29.841Z,36.91
2019-03-27T01:12:56.744Z,36.99
2019-03-27T01:15:23.696Z,37.08
2019-03-27T01:17:50.663Z,37.19
2019-03-27T01:20:17.829Z,37.32
2019-03-27T01:22:44.801Z,37.49
2019-03-27T01:25:12.039Z,37.68
2019-03-27T01:27:39.400Z,37.79
2019-03-27T01:30:06.362Z,37.89
2019-03-27T01:32:33.318Z,37.99
2019-03-27T01:35:00.372Z,38.06
2019-03-27T01:37:27.363Z,38.20
2019-03-27T01:39:54.738Z,38.31
2019-03-27T01:42:21.723Z,38.43
2019-03-27T01:44:48.656Z,38.56
2019-03-27T01:47:15.553Z,38.65
2019-03-27T01:49:42.418Z,38.74
2019-03-27T01:52:09.308Z,38.80
2019-03-27T01:54:36.518Z,38.87
2019-03-27T01:57:03.753Z,38.96
2019-03-27T01:59:31.013Z,38.99
2019-03-27T02:01:57.988Z,39.05
2019-03-27T02:04:25.321Z,39.08
2019-03-27T02:06:52.572Z,39.09
2019-03-27T02:09:19.518Z,39.15
2019-03-27T02:11:46.382Z,39.18
2019-03-27T02:14:13.281Z,39.26
2019-03-27T02:16:40.602Z,39.32
2019-03-27T02:19:07.817Z,39.39
2019-03-27T02:21:34.677Z,39.44
2019-03-27T02:24:01.559Z,39.47
2019-03-27T02:26:28.428Z,39.49
2019-03-27T02:28:55.685Z,39.49
2019-03-27T02:31:22.577Z,39.46
2019-03-27T02:33:49.561Z,39.47
2019-03-27T02:36:16.829Z,39.43
2019-03-27T02:38:44.080Z,39.41
2019-03-27T02:41:11.047Z,39.37
2019-03-27T02:43:38.299Z,39.43
2019-03-27T02:46:05.280Z,39.44
2019-03-27T02:48:32.250Z,39.48
2019-03-27T02:50:59.530Z,39.57
2019-03-27T02:53:26.482Z,39.59
2019-03-27T02:55:53.369Z,39.66
2019-03-27T02:58:21.331Z,39.76
2019-03-27T03:00:48.269Z,39.85
2019-03-27T03:03:15.490Z,39.98
2019-03-27T03:05:42.429Z,40.11
2019-03-27T03:08:09.399Z,40.16
2019-03-27T03:10:36.361Z,40.22
2019-03-27T03:13:03.325Z,40.30
2019-03-27T03:15:30.633Z,40.39
2019-03-27T03:17:57.519Z,40.45
2019-03-27T03:20:24.464Z,40.44
2019-03-27T03:22:51.367Z,40.51
2019-03-27T03:25:18.320Z,40.56
2019-03-27T03:27:45.283Z,40.66
2019-03-27T03:30:12.260Z,40.78
2019-03-27T03:32:39.191Z,40.86
2019-03-27T03:35:07.540Z,40.90
2019-03-27T03:37:34.500Z,40.90
2019-03-27T03:40:01.815Z,40.96
2019-03-27T03:42:28.680Z,40.94
2019-03-27T03:44:55.910Z,40.85
2019-03-27T03:47:22.800Z,40.78
2019-03-27T03:49:50.874Z,40.68
2019-03-27T03:52:17.825Z,40.66
2019-03-27T03:54:44.790Z,40.53
2019-03-27T03:57:11.771Z,40.44
2019-03-27T03:59:38.793Z,40.36
2019-03-27T04:02:05.865Z,40.41
2019-03-27T04:04:32.902Z,40.42
2019-03-27T04:07:00.187Z,40.37
2019-03-27T04:09:27.164Z,40.36
2019-03-27T04:11:54.361Z,40.42
2019-03-27T04:14:21.281Z,40.53
2019-03-27T04:16:48.248Z,40.58
2019-03-27T04:19:15.275Z,40.66
2019-03-27T04:21:42.558Z,40.76
2019-03-27T04:24:09.545Z,40.91
2019-03-27T04:26:36.508Z,41.01
2019-03-27T04:29:03.432Z,41.16
2019-03-27T04:31:30.403Z,41.43
2019-03-27T04:33:57.379Z,41.80
2019-03-27T04:36:24.310Z,42.16
2019-03-27T04:38:51.203Z,42.22
2019-03-27T04:41:18.164Z,42.14
2019-03-27T04:43:45.401Z,42.17
2019-03-27T04:46:12.370Z,42.19
2019-03-27T04:48:39.425Z,42.12
2019-03-27T04:51:06.756Z,42.03
2019-03-27T04:53:34.003Z,41.99
2019-03-27T04:56:00.920Z,42.08
2019-03-27T04:58:27.946Z,42.13
2019-03-27T05:00:55.330Z,42.20
2019-03-27T05:03:22.603Z,42.17
2019-03-27T05:05:49.835Z,42.22
2019-03-27T05:08:17.804Z,42.26
2019-03-27T05:10:44.787Z,42.33
2019-03-27T05:13:12.120Z,42.42
2019-03-27T05:15:39.093Z,42.56
2019-03-27T05:18:06.349Z,42.75
2019-03-27T05:20:33.673Z,42.83
2019-03-27T05:23:00.567Z,42.95
2019-03-27T05:25:27.765Z,43.08
2019-03-27T05:27:54.712Z,43.19
2019-03-27T05:30:21.580Z,43.17
2019-03-27T05:32:48.473Z,43.14
2019-03-27T05:35:15.424Z,43.10
2019-03-27T05:37:42.586Z,42.78
2019-03-27T05:40:09.473Z,42.61
2019-03-27T05:42:36.339Z,42.60
2019-03-27T05:45:03.229Z,42.60
2019-03-27T05:47:31.261Z,42.60
2019-03-27T05:49:58.139Z,42.68
2019-03-27T05:52:25.118Z,42.73
2019-03-27T05:54:52.341Z,42.67
2019-03-27T05:57:19.247Z,42.76
2019-03-27T05:59:46.546Z,42.93
2019-03-27T06:02:13.545Z,43.07
2019-03-27T06:04:40.499Z,43.21
2019-03-27T06:07:07.791Z,43.22
2019-03-27T06:09:34.764Z,43.42
2019-03-27T06:12:01.991Z,43.47
2019-03-27T06:14:29.244Z,43.39
2019-03-27T06:16:56.215Z,43.34
2019-03-27T06:19:23.140Z,43.14
2019-03-27T06:21:50.084Z,43.03
2019-03-27T06:24:16.978Z,42.95
2019-03-27T06:26:44.169Z,42.97
2019-03-27T06:29:11.127Z,42.99
2019-03-27T06:31:38.364Z,42.92
2019-03-27T06:34:05.507Z,42.85
2019-03-27T06:36:32.425Z,42.74
2019-03-27T06:38:59.416Z,42.66
2019-03-27T06:41:26.660Z,42.46
2019-03-27T06:43:53.915Z,42.32
2019-03-27T06:46:20.888Z,42.24
2019-03-27T06:48:48.107Z,42.23
2019-03-27T06:51:16.423Z,42.16
2019-03-27T06:53:43.397Z,42.13
2019-03-27T06:56:10.582Z,42.00
2019-03-27T06:58:37.944Z,41.88
2019-03-27T07:01:05.092Z,41.81
2019-03-27T07:03:31.981Z,41.76
2019-03-27T07:05:58.877Z,41.63
2019-03-27T07:08:26.132Z,41.48
2019-03-27T07:10:53.007Z,41.36
2019-03-27T07:13:20.018Z,41.27
2019-03-27T07:15:47.003Z,41.23
2019-03-27T07:18:13.904Z,41.23
2019-03-27T07:20:41.213Z,41.30
2019-03-27T07:23:08.874Z,41.35
2019-03-27T07:25:35.814Z,42.34
2019-03-27T07:28:02.710Z,42.79
2019-03-27T07:30:29.603Z,42.93
2019-03-27T07:32:57.662Z,42.96
2019-03-27T07:35:25.701Z,43.06
2019-03-27T07:37:52.597Z,42.74
2019-03-27T07:40:19.466Z,42.55
2019-03-27T07:42:46.358Z,42.37
2019-03-27T07:45:13.258Z,42.49
2019-03-27T07:47:40.544Z,42.47
2019-03-27T07:50:07.785Z,42.41
2019-03-27T07:52:34.673Z,42.43
2019-03-27T07:55:01.993Z,42.24
2019-03-27T07:57:29.244Z,42.12
2019-03-27T07:59:56.148Z,41.85
2019-03-27T08:02:23.441Z,41.86
2019-03-27T08:04:50.591Z,41.82
2019-03-27T08:07:26.616Z,41.74
2019-03-27T08:09:46.445Z,41.64
2019-03-27T08:12:13.696Z,41.42
2019-03-27T08:14:40.662Z,41.32
2019-03-27T08:17:07.914Z,41.15
2019-03-27T08:19:34.842Z,41.10
2019-03-27T08:22:01.778Z,40.98
2019-03-27T08:24:28.713Z,40.87
2019-03-27T08:26:56.093Z,40.79
2019-03-27T08:29:23.071Z,40.64
2019-03-27T08:31:50.042Z,40.55
2019-03-27T08:34:17.017Z,40.49
2019-03-27T08:36:44.163Z,40.38
2019-03-27T08:39:11.066Z,40.39
2019-03-27T08:41:38.256Z,40.37
2019-03-27T08:44:05.512Z,40.41
2019-03-27T08:46:32.413Z,40.39
2019-03-27T08:49:00.341Z,40.31
2019-03-27T08:51:27.683Z,40.09
2019-03-27T08:53:54.945Z,39.84
2019-03-27T08:56:21.920Z,39.67
2019-03-27T08:58:48.913Z,39.58
2019-03-27T09:01:16.940Z,39.59
2019-03-27T09:03:43.910Z,39.61
2019-03-27T09:06:11.200Z,39.46
2019-03-27T09:08:38.456Z,39.49
2019-03-27T09:11:05.362Z,39.41
2019-03-27T09:13:32.326Z,39.39
2019-03-27T09:15:59.286Z,39.31
2019-03-27T09:18:26.171Z,39.29
2019-03-27T09:20:53.478Z,39.22
2019-03-27T09:23:20.364Z,38.98
2019-03-27T09:25:47.344Z,38.72
2019-03-27T09:28:14.623Z,38.67
2019-03-27T09:30:41.890Z,38.65
2019-03-27T09:33:08.916Z,38.64
2019-03-27T09:35:36.872Z,38.61
2019-03-27T09:38:04.089Z,38.67
2019-03-27T09:40:31.202Z,38.87
2019-03-27T09:42:58.381Z,38.97
2019-03-27T09:45:25.801Z,38.94
2019-03-27T09:47:53.128Z,38.96
2019-03-27T09:50:20.421Z,38.87
2019-03-27T09:52:47.585Z,38.72
2019-03-27T09:55:14.829Z,38.64
2019-03-27T09:57:41.834Z,38.46
2019-03-27T10:00:08.782Z,38.29
2019-03-27T10:02:35.687Z,38.16
2019-03-27T10:05:02.648Z,37.94
2019-03-27T10:07:29.619Z,37.80
2019-03-27T10:09:56.799Z,37.78
2019-03-27T10:12:23.778Z,37.61
2019-03-27T10:14:50.735Z,37.47
2019-03-27T10:17:17.704Z,37.30
2019-03-27T10:19:44.900Z,37.26
2019-03-27T10:22:11.845Z,37.30
2019-03-27T10:24:38.772Z,37.32
2019-03-27T10:27:08.914Z,37.41
2019-03-27T10:29:35.880Z,37.46
2019-03-27T10:32:03.202Z,37.44
2019-03-27T10:34:30.086Z,37.29
2019-03-27T10:36:57.321Z,37.11
2019-03-27T10:39:24.229Z,36.89
2019-03-27T10:41:51.282Z,36.64
2019-03-27T10:44:18.272Z,36.56
2019-03-27T10:46:45.504Z,36.48
2019-03-27T10:49:12.376Z,36.39
2019-03-27T10:51:39.277Z,36.18
2019-03-27T10:54:06.306Z,36.12
2019-03-27T10:56:33.239Z,36.07
2019-03-27T10:59:00.548Z,35.97
2019-03-27T11:01:27.949Z,35.61
2019-03-27T11:03:54.914Z,35.40
2019-03-27T11:06:21.818Z,35.38
2019-03-27T11:08:48.802Z,35.45
2019-03-27T11:11:16.148Z,35.52
2019-03-27T11:13:43.029Z,35.45
2019-03-27T11:16:09.907Z,35.31
2019-03-27T11:18:36.842Z,35.19
2019-03-27T11:21:03.751Z,35.11
2019-03-27T11:23:32.037Z,35.18
2019-03-27T11:25:58.985Z,35.20
2019-03-27T11:28:28.629Z,35.18
2019-03-27T11:30:55.593Z,35.12
2019-03-27T11:33:22.584Z,35.07
2019-03-27T11:35:51.755Z,35.06
2019-03-27T11:38:19.500Z,35.00
2019-03-27T11:40:46.787Z,34.94
2019-03-27T11:43:14.051Z,35.00
2019-03-27T11:45:41.009Z,35.06
2019-03-27T11:48:09.686Z,35.15
2019-03-27T11:50:44.556Z,35.11
2019-03-27T11:53:05.144Z,35.10
2019-03-27T11:55:32.090Z,35.18
2019-03-27T11:57:59.429Z,35.31
2019-03-27T12:00:26.360Z,35.41
2019-03-27T12:02:53.261Z,35.35
2019-03-27T12:05:20.576Z,35.28
2019-03-27T12:07:47.931Z,35.30
2019-03-27T12:10:14.886Z,35.29
2019-03-27T12:12:42.257Z,35.08
2019-03-27T12:15:09.576Z,34.86
2019-03-27T12:17:36.848Z,34.82
2019-03-27T12:20:04.279Z,34.69
2019-03-27T12:22:31.517Z,34.76
2019-03-27T12:24:58.517Z,34.84
2019-03-27T12:27:25.833Z,34.83
2019-03-27T12:29:52.846Z,34.88
2019-03-27T12:32:19.818Z,34.91
2019-03-27T12:34:46.772Z,34.96
2019-03-27T12:37:13.753Z,34.98
2019-03-27T12:39:41.252Z,35.06
2019-03-27T12:42:08.181Z,35.08
2019-03-27T12:44:35.466Z,35.15
2019-03-27T12:47:02.532Z,35.23
2019-03-27T12:49:29.432Z,35.27
2019-03-27T12:51:56.380Z,35.28
2019-03-27T12:54:23.295Z,35.22
2019-03-27T12:56:50.608Z,35.07
2019-03-27T12:59:17.585Z,34.94
2019-03-27T13:01:44.802Z,34.86
2019-03-27T13:04:11.765Z,34.76
2019-03-27T13:06:38.671Z,34.73
2019-03-27T13:09:05.609Z,34.73
2019-03-27T13:11:32.794Z,34.70
2019-03-27T13:13:59.761Z,34.67
2019-03-27T13:16:26.786Z,34.71
2019-03-27T13:18:53.801Z,34.86
2019-03-27T13:21:26.195Z,34.92
2019-03-27T13:23:49.257Z,34.98
2019-03-27T13:26:16.519Z,35.00
2019-03-27T13:28:48.979Z,35.06
2019-03-27T13:31:12.663Z,35.07
2019-03-27T13:33:39.914Z,35.05
2019-03-27T13:36:07.181Z,35.12
2019-03-27T13:38:34.417Z,35.16
2019-03-27T13:41:01.366Z,35.17
2019-03-27T13:43:28.299Z,35.17
2019-03-27T13:45:55.566Z,35.24
2019-03-27T13:48:22.481Z,35.34
2019-03-27T13:50:49.764Z,35.39
2019-03-27T13:53:16.763Z,35.46
2019-03-27T13:55:43.729Z,35.56
2019-03-27T13:58:10.643Z,35.66
2019-03-27T14:00:37.676Z,35.72
2019-03-27T14:03:04.564Z,35.75
2019-03-27T14:05:31.857Z,35.70
2019-03-27T14:07:58.825Z,35.73
2019-03-27T14:10:26.047Z,35.72
2019-03-27T14:12:53.378Z,35.76
2019-03-27T14:15:20.261Z,35.78
2019-03-27T14:17:47.218Z,35.75
2019-03-27T14:20:14.187Z,35.67
2019-03-27T14:22:41.481Z,35.62
2019-03-27T14:25:08.638Z,35.62
2019-03-27T14:27:35.564Z,35.58
2019-03-27T14:30:02.464Z,35.65
2019-03-27T14:32:29.994Z,35.72
2019-03-27T14:34:57.256Z,35.75
2019-03-27T14:37:24.210Z,35.85
2019-03-27T14:39:51.475Z,35.89
2019-03-27T14:42:18.706Z,35.92
2019-03-27T14:44:45.661Z,35.89
2019-03-27T14:47:12.605Z,35.84
2019-03-27T14:49:39.565Z,35.92
2019-03-27T14:52:08.578Z,35.96
2019-03-27T14:54:35.381Z,35.96
2019-03-27T14:57:02.320Z,36.00
2019-03-27T14:59:29.293Z,36.04
2019-03-27T15:01:56.158Z,35.96
2019-03-27T15:04:23.056Z,35.95
2019-03-27T15:06:50.305Z,35.94
2019-03-27T15:09:17.293Z,35.93
2019-03-27T15:11:44.248Z,36.01
2019-03-27T15:14:11.199Z,36.42
2019-03-27T15:16:38.385Z,37.42
2019-03-27T15:19:05.645Z,37.91
2019-03-27T15:21:32.912Z,38.20
2019-03-27T15:24:00.253Z,38.01
2019-03-27T15:26:27.504Z,37.90
2019-03-27T15:28:54.655Z,37.64
2019-03-27T15:31:21.611Z,37.49
2019-03-27T15:33:49.066Z,37.64
2019-03-27T15:36:16.427Z,37.14
2019-03-27T15:38:43.727Z,36.58
2019-03-27T15:41:11.032Z,36.24
2019-03-27T15:43:38.080Z,36.10
2019-03-27T15:46:05.332Z,36.23
2019-03-27T15:48:32.689Z,36.57
2019-03-27T15:50:59.691Z,36.70
2019-03-27T15:53:26.974Z,36.88
2019-03-27T15:55:54.380Z,36.96
2019-03-27T15:58:21.799Z,36.93
2019-03-27T16:00:48.715Z,36.99
2019-03-27T16:03:16.090Z,37.09
2019-03-27T16:05:42.991Z,37.17
2019-03-27T16:08:09.949Z,37.23
2019-03-27T16:10:37.243Z,37.28
2019-03-27T16:13:04.335Z,37.23
2019-03-27T16:15:31.249Z,37.29
2019-03-27T16:17:58.250Z,37.17
2019-03-27T16:20:25.580Z,37.11
2019-03-27T16:22:52.469Z,37.05
2019-03-27T16:25:19.440Z,37.09
2019-03-27T16:27:46.318Z,37.07
2019-03-27T16:30:13.271Z,36.96
2019-03-27T16:32:40.141Z,36.86
2019-03-27T16:35:07.326Z,36.92
2019-03-27T16:37:34.262Z,36.92
2019-03-27T16:40:01.213Z,36.83
2019-03-27T16:42:29.783Z,36.85
2019-03-27T16:44:57.040Z,36.84
2019-03-27T16:47:23.939Z,36.73
2019-03-27T16:49:50.909Z,36.71
2019-03-27T16:52:17.891Z,36.67
2019-03-27T16:54:44.825Z,36.59
2019-03-27T16:57:12.086Z,36.50
2019-03-27T16:59:38.986Z,36.51
2019-03-27T17:02:06.042Z,36.50
2019-03-27T17:04:33.318Z,36.53
2019-03-27T17:07:00.191Z,36.45
2019-03-27T17:09:27.066Z,36.44
2019-03-27T17:11:54.036Z,36.43
2019-03-27T17:14:20.941Z,36.44
2019-03-27T17:16:47.929Z,36.49
2019-03-27T17:19:14.885Z,36.51
2019-03-27T17:21:41.801Z,36.50
2019-03-27T17:24:08.775Z,36.57
2019-03-27T17:26:35.780Z,36.56
2019-03-27T17:29:02.734Z,36.61
2019-03-27T17:31:29.618Z,36.63
2019-03-27T17:33:56.562Z,36.63
2019-03-27T17:36:23.826Z,36.64
2019-03-27T17:38:51.069Z,36.63
2019-03-27T17:41:36.557Z,36.68
2019-03-27T17:44:28.990Z,36.70
2019-03-27T17:47:13.683Z,36.93
2019-03-27T17:49:49.649Z,37.22
2019-03-27T17:52:16.633Z,37.36
2019-03-27T17:54:43.539Z,37.35
2019-03-27T17:57:10.509Z,37.31
2019-03-27T17:59:37.391Z,37.27
2019-03-27T18:02:04.294Z,37.29
2019-03-27T18:04:31.333Z,37.32
2019-03-27T18:06:58.642Z,37.33
2019-03-27T18:09:25.993Z,37.35
2019-03-27T18:11:53.243Z,37.29
2019-03-27T18:14:20.632Z,37.28
2019-03-27T18:16:47.580Z,37.22
2019-03-27T18:19:14.569Z,37.17
2019-03-27T18:21:42.004Z,37.19
2019-03-27T18:24:08.963Z,37.24
2019-03-27T18:26:36.258Z,37.21
2019-03-27T18:29:03.137Z,37.15
2019-03-27T18:31:30.351Z,37.01
2019-03-27T18:33:57.273Z,36.95
2019-03-27T18:36:24.222Z,36.82
2019-03-27T18:38:51.169Z,36.77
2019-03-27T18:41:18.121Z,36.74
2019-03-27T18:43:45.109Z,36.73
2019-03-27T18:46:12.095Z,36.74
2019-03-27T18:48:39.094Z,36.73
2019-03-27T18:51:06.185Z,36.72
2019-03-27T18:53:33.478Z,36.66
2019-03-27T18:56:03.385Z,36.67
2019-03-27T18:58:30.639Z,36.66
2019-03-27T19:00:57.993Z,36.69
2019-03-27T19:03:25.253Z,36.78
2019-03-27T19:05:52.560Z,36.74
2019-03-27T19:08:19.869Z,36.75
2019-03-27T19:10:46.840Z,36.75
2019-03-27T19:13:13.793Z,36.88
2019-03-27T19:15:41.014Z,37.50
2019-03-27T19:18:08.264Z,37.57
2019-03-27T19:20:36.308Z,37.59
2019-03-27T19:23:04.435Z,37.39
2019-03-27T19:25:31.388Z,37.21
2019-03-27T19:27:58.710Z,37.05
2019-03-27T19:30:25.585Z,36.98
2019-03-27T19:32:52.483Z,36.91
2019-03-27T19:35:19.458Z,36.85
2019-03-27T19:37:46.467Z,36.87
2019-03-27T19:40:13.425Z,36.89
2019-03-27T19:42:40.386Z,36.96
2019-03-27T19:45:07.736Z,36.97
2019-03-27T19:47:35.007Z,36.95
2019-03-27T19:50:03.160Z,36.98
2019-03-27T19:52:30.302Z,36.98
2019-03-27T19:54:57.664Z,36.98
2019-03-27T19:57:24.657Z,36.93
2019-03-27T19:59:51.726Z,36.87
2019-03-27T20:02:18.753Z,36.89
2019-03-27T20:04:45.706Z,36.88
2019-03-27T20:07:13.109Z,36.87
2019-03-27T20:09:40.378Z,36.88
2019-03-27T20:12:08.741Z,36.83
2019-03-27T20:14:35.653Z,36.87
2019-03-27T20:17:03.054Z,36.90
2019-03-27T20:19:31.417Z,36.99
2019-03-27T20:21:58.409Z,37.06
2019-03-27T20:24:25.881Z,37.05
2019-03-27T20:26:52.848Z,37.04
2019-03-27T20:29:20.143Z,37.00
2019-03-27T20:31:47.373Z,36.97
2019-03-27T20:34:15.319Z,36.98
2019-03-27T20:36:42.606Z,36.97
2019-03-27T20:39:09.560Z,37.03
2019-03-27T20:41:36.634Z,37.09
2019-03-27T20:44:03.799Z,37.06
2019-03-27T20:46:30.986Z,37.07
2019-03-27T20:48:57.876Z,37.06
2019-03-27T20:51:25.739Z,37.13
2019-03-27T20:53:53.076Z,37.27
2019-03-27T20:56:20.057Z,37.43
2019-03-27T20:58:46.942Z,37.54
2019-03-27T21:01:13.974Z,37.67
2019-03-27T21:03:40.931Z,37.81
2019-03-27T21:06:07.930Z,38.03
2019-03-27T21:08:35.249Z,38.23
2019-03-27T21:11:02.507Z,38.42
2019-03-27T21:13:29.665Z,38.58
2019-03-27T21:15:56.569Z,38.82
2019-03-27T21:18:23.588Z,38.96
2019-03-27T21:20:50.469Z,39.20
2019-03-27T21:23:17.350Z,39.56
2019-03-27T21:25:44.254Z,39.60
2019-03-27T21:28:11.529Z,39.67
2019-03-27T21:30:38.452Z,39.77
2019-03-27T21:33:05.404Z,39.96
2019-03-27T21:35:32.676Z,40.14
2019-03-27T21:37:59.556Z,40.39
2019-03-27T21:40:26.556Z,40.51
2019-03-27T21:42:53.513Z,40.56
2019-03-27T21:45:20.500Z,40.64
2019-03-27T21:47:47.477Z,40.89
2019-03-27T21:50:14.645Z,41.06
2019-03-27T21:52:41.531Z,41.16
2019-03-27T21:55:21.442Z,41.42
2019-03-27T21:57:37.091Z,41.57
2019-03-27T22:00:04.371Z,41.71
2019-03-27T22:02:31.835Z,41.94
2019-03-27T22:04:58.786Z,42.13
2019-03-27T22:07:25.750Z,42.23
2019-03-27T22:09:52.654Z,42.35
2019-03-27T22:12:19.619Z,42.38
2019-03-27T22:14:46.871Z,42.48
2019-03-27T22:17:13.756Z,42.62
2019-03-27T22:19:40.648Z,42.61
2019-03-27T22:22:07.639Z,42.60
2019-03-27T22:24:34.581Z,42.67
2019-03-27T22:27:01.916Z,42.62
2019-03-27T22:29:28.854Z,42.51
2019-03-27T22:31:56.025Z,42.45
2019-03-27T22:34:22.923Z,42.42
2019-03-27T22:36:49.889Z,42.40
2019-03-27T22:39:17.166Z,42.42
2019-03-27T22:41:44.395Z,42.43
2019-03-27T22:44:11.577Z,42.43
2019-03-27T22:46:38.808Z,42.46
2019-03-27T22:49:06.064Z,42.45
2019-03-27T22:51:33.422Z,42.44
2019-03-27T22:54:00.287Z,42.54
2019-03-27T22:56:27.616Z,42.62
2019-03-27T22:58:54.612Z,42.69
2019-03-27T23:01:21.558Z,42.69
2019-03-27T23:03:48.512Z,42.69
2019-03-27T23:06:15.520Z,42.63
2019-03-27T23:08:42.542Z,42.66
2019-03-27T23:11:09.694Z,42.68
2019-03-27T23:13:36.587Z,42.63
2019-03-27T23:16:03.810Z,42.58
2019-03-27T23:18:30.843Z,42.64
2019-03-27T23:20:57.798Z,42.62
2019-03-27T23:23:25.034Z,42.58
2019-03-27T23:26:02.493Z,42.48
2019-03-27T23:28:20.891Z,42.50
2019-03-27T23:30:47.853Z,42.61
2019-03-27T23:33:14.808Z,42.66
2019-03-27T23:35:41.786Z,42.73
2019-03-27T23:38:09.093Z,42.73
2019-03-27T23:40:36.330Z,42.72
2019-03-27T23:43:03.347Z,42.70
2019-03-27T23:45:30.640Z,42.71
2019-03-27T23:47:57.877Z,42.66
2019-03-27T23:50:24.758Z,42.65
2019-03-27T23:52:51.671Z,42.69
2019-03-27T23:55:18.952Z,42.63
2019-03-27T23:57:45.906Z,42.57
